createdAt,value
2023-01-22T00:01:03.554Z,20.43
2023-01-22T00:03:32.017Z,21.40
2023-01-22T00:06:00.741Z,20.93
2023-01-22T00:08:29.440Z,21.27
2023-01-22T00:10:59.245Z,21.40
2023-01-22T00:13:28.479Z,20.80
2023-01-22T00:15:59.030Z,21.90
2023-01-22T00:18:27.606Z,22.83
2023-01-22T00:20:56.548Z,22.20
2023-01-22T00:23:25.589Z,21.30
2023-01-22T00:26:03.476Z,20.30
2023-01-22T00:28:31.940Z,20.63
2023-01-22T00:31:00.604Z,22.23
2023-01-22T00:33:29.211Z,21.03
2023-01-22T00:35:57.655Z,20.47
2023-01-22T00:38:26.060Z,19.27
2023-01-22T00:40:54.490Z,19.50
2023-01-22T00:43:24.343Z,20.60
2023-01-22T00:45:52.769Z,20.93
2023-01-22T00:48:21.209Z,19.70
2023-01-22T00:50:50.285Z,20.50
2023-01-22T00:53:18.784Z,20.33
2023-01-22T00:55:52.886Z,20.30
2023-01-22T00:58:21.634Z,19.53
2023-01-22T01:00:51.753Z,20.17
2023-01-22T01:03:30.551Z,20.47
2023-01-22T01:06:00.250Z,20.87
2023-01-22T01:08:29.418Z,20.43
2023-01-22T01:10:58.107Z,20.33
2023-01-22T01:13:26.688Z,19.60
2023-01-22T01:16:02.520Z,19.53
2023-01-22T01:18:31.079Z,19.47
2023-01-22T01:21:00.023Z,19.60
2023-01-22T01:23:29.334Z,19.17
2023-01-22T01:25:57.771Z,19.63
2023-01-22T01:28:26.244Z,20.00
2023-01-22T01:30:54.804Z,19.60
2023-01-22T01:33:24.682Z,18.73
2023-01-22T01:36:00.183Z,20.67
2023-01-22T01:38:28.633Z,19.57
2023-01-22T01:40:57.125Z,19.90
2023-01-22T01:43:25.845Z,18.80
2023-01-22T01:45:54.457Z,18.73
2023-01-22T01:48:28.569Z,18.70
2023-01-22T01:51:00.265Z,19.27
2023-01-22T01:53:28.889Z,18.13
2023-01-22T01:55:57.872Z,18.73
2023-01-22T01:58:27.221Z,19.37
2023-01-22T02:00:57.080Z,19.07
2023-01-22T02:03:27.453Z,17.30
2023-01-22T02:05:55.907Z,18.23
2023-01-22T02:08:24.356Z,18.93
2023-01-22T02:10:53.246Z,18.17
2023-01-22T02:13:24.487Z,18.30
2023-01-22T02:15:52.980Z,18.57
2023-01-22T02:18:21.592Z,18.50
2023-01-22T02:23:22.095Z,18.43
2023-01-22T02:25:50.559Z,16.93
2023-01-22T02:28:19.027Z,17.87
2023-01-22T02:30:47.775Z,16.70
2023-01-22T02:33:16.512Z,18.30
2023-01-22T02:35:45.039Z,18.60
2023-01-22T02:38:14.221Z,18.90
2023-01-22T02:40:49.375Z,17.27
2023-01-22T02:43:17.991Z,17.93
2023-01-22T02:45:46.420Z,17.67
2023-01-22T02:48:14.925Z,17.37
2023-01-22T02:50:45.068Z,17.87
2023-01-22T02:53:13.846Z,17.10
2023-01-22T02:55:44.874Z,17.17
2023-01-22T02:58:14.718Z,18.00
2023-01-22T03:03:15.693Z,16.77
2023-01-22T03:05:50.699Z,16.73
2023-01-22T03:08:19.729Z,17.27
2023-01-22T03:10:48.473Z,16.77
2023-01-22T03:13:34.612Z,16.37
2023-01-22T03:16:23.344Z,16.13
2023-01-22T03:19:10.986Z,16.00
2023-01-22T03:21:43.925Z,17.90
2023-01-22T03:24:12.370Z,15.40
2023-01-22T03:26:40.826Z,15.70
2023-01-22T03:29:09.261Z,16.07
2023-01-22T03:31:37.784Z,15.60
2023-01-22T03:34:07.675Z,15.23
2023-01-22T03:36:36.098Z,16.00
2023-01-22T03:39:04.550Z,15.27
2023-01-22T03:41:32.956Z,15.77
2023-01-22T03:44:03.502Z,15.47
2023-01-22T03:46:34.689Z,15.50
2023-01-22T03:49:03.138Z,15.33
2023-01-22T03:51:32.911Z,15.03
2023-01-22T03:54:01.647Z,15.20
2023-01-22T03:56:30.121Z,14.50
2023-01-22T03:58:58.527Z,14.93
2023-01-22T04:01:27.704Z,15.20
2023-01-22T04:03:56.348Z,14.53
2023-01-22T04:06:25.108Z,15.53
2023-01-22T04:08:55.661Z,16.10
2023-01-22T04:11:24.646Z,14.97
2023-01-22T04:13:53.119Z,16.20
2023-01-22T04:16:21.572Z,15.20
2023-01-22T04:18:50.062Z,15.60
2023-01-22T04:21:18.500Z,14.90
2023-01-22T04:23:46.930Z,15.97
2023-01-22T04:26:16.706Z,15.83
2023-01-22T04:28:45.147Z,16.20
2023-01-22T04:31:13.662Z,16.90
2023-01-22T04:33:42.360Z,16.53
2023-01-22T04:36:11.618Z,15.97
2023-01-22T04:38:40.043Z,16.43
2023-01-22T04:41:08.608Z,16.10
2023-01-22T04:43:38.417Z,16.30
2023-01-22T04:46:07.037Z,16.27
2023-01-22T04:48:35.599Z,16.43
2023-01-22T04:51:04.062Z,15.77
2023-01-22T04:53:32.495Z,15.37
2023-01-22T04:56:00.969Z,16.10
2023-01-22T04:58:29.382Z,15.80
2023-01-22T05:00:59.332Z,15.93
2023-01-22T05:03:27.768Z,15.20
2023-01-22T05:05:56.214Z,15.50
2023-01-22T05:08:24.606Z,16.37
2023-01-22T05:10:53.029Z,15.93
2023-01-22T05:13:21.457Z,16.00
2023-01-22T05:15:49.926Z,15.30
2023-01-22T05:18:19.754Z,15.30
2023-01-22T05:20:48.213Z,15.37
2023-01-22T05:23:16.661Z,15.70
2023-01-22T05:25:49.206Z,15.37
2023-01-22T05:28:17.639Z,14.90
2023-01-22T05:30:46.176Z,15.40
2023-01-22T05:33:14.660Z,15.00
2023-01-22T05:35:44.477Z,13.90
2023-01-22T05:38:12.918Z,15.30
2023-01-22T05:40:41.375Z,14.43
2023-01-22T05:43:09.779Z,14.53
2023-01-22T05:45:38.214Z,15.33
2023-01-22T05:48:06.764Z,14.17
2023-01-22T05:50:35.241Z,14.73
2023-01-22T05:53:05.326Z,14.97
2023-01-22T05:55:33.961Z,14.97
2023-01-22T05:58:03.810Z,14.40
2023-01-22T06:00:33.866Z,14.13
2023-01-22T06:03:02.762Z,14.93
2023-01-22T06:05:31.202Z,14.33
2023-01-22T06:07:59.963Z,14.47
2023-01-22T06:10:29.842Z,14.60
2023-01-22T06:12:58.245Z,14.73
2023-01-22T06:15:26.710Z,13.93
2023-01-22T06:17:55.134Z,13.80
2023-01-22T06:20:23.582Z,14.03
2023-01-22T06:22:52.810Z,15.40
2023-01-22T06:25:21.270Z,13.47
2023-01-22T06:27:51.039Z,13.30
2023-01-22T06:30:19.906Z,12.93
2023-01-22T06:32:48.462Z,13.53
2023-01-22T06:35:17.009Z,13.33
2023-01-22T06:37:45.429Z,14.67
2023-01-22T06:40:14.154Z,14.03
2023-01-22T06:42:42.855Z,13.07
2023-01-22T06:45:13.162Z,12.93
2023-01-22T06:47:44.938Z,12.80
2023-01-22T06:50:13.439Z,13.37
2023-01-22T06:52:41.853Z,13.57
2023-01-22T06:55:10.796Z,13.27
2023-01-22T06:57:39.211Z,13.67
2023-01-22T07:00:08.419Z,13.00
2023-01-22T07:02:38.268Z,12.97
2023-01-22T07:05:06.909Z,12.67
2023-01-22T07:07:35.346Z,12.97
2023-01-22T07:10:03.777Z,12.87
2023-01-22T07:12:32.236Z,12.93
2023-01-22T07:15:00.689Z,13.00
2023-01-22T07:17:29.319Z,11.93
2023-01-22T07:19:59.093Z,13.40
2023-01-22T07:22:27.516Z,12.63
2023-01-22T07:24:55.983Z,13.57
2023-01-22T07:27:24.431Z,12.50
2023-01-22T07:29:52.841Z,12.10
2023-01-22T07:32:21.412Z,12.47
2023-01-22T07:34:49.919Z,12.57
2023-01-22T07:37:19.737Z,13.27
2023-01-22T07:39:48.245Z,12.53
2023-01-22T07:42:16.697Z,13.30
2023-01-22T07:44:45.188Z,12.63
2023-01-22T07:47:13.623Z,12.87
2023-01-22T07:49:42.046Z,12.30
2023-01-22T07:52:10.487Z,12.63
2023-01-22T07:54:40.266Z,13.40
2023-01-22T07:57:11.216Z,12.33
2023-01-22T07:59:39.634Z,12.27
2023-01-22T08:02:08.189Z,13.50
2023-01-22T08:04:36.653Z,12.63
2023-01-22T08:07:05.099Z,12.63
2023-01-22T08:09:33.512Z,12.40
2023-01-22T08:12:03.391Z,13.00
2023-01-22T08:14:31.814Z,12.47
2023-01-22T08:17:00.252Z,12.03
2023-01-22T08:19:29.636Z,12.27
2023-01-22T08:21:58.453Z,12.57
2023-01-22T08:24:26.896Z,11.60
2023-01-22T08:26:56.226Z,13.07
2023-01-22T08:29:26.008Z,12.10
2023-01-22T08:31:54.541Z,12.20
2023-01-22T08:34:23.494Z,12.17
2023-01-22T08:36:52.018Z,12.40
2023-01-22T08:39:20.443Z,12.60
2023-01-22T08:41:48.891Z,12.13
2023-01-22T08:44:17.410Z,11.27
2023-01-22T08:46:47.268Z,11.63
2023-01-22T08:49:15.689Z,12.27
2023-01-22T08:54:24.357Z,11.93
2023-01-22T08:56:52.801Z,11.97
2023-01-22T08:59:21.264Z,12.47
2023-01-22T09:01:49.869Z,12.33
2023-01-22T09:04:19.726Z,11.50
2023-01-22T09:06:48.133Z,11.93
2023-01-22T09:09:16.590Z,12.10
2023-01-22T09:14:04.034Z,12.77
2023-01-22T09:16:34.316Z,12.50
2023-01-22T09:19:02.793Z,12.40
2023-01-22T09:21:31.207Z,12.40
2023-01-22T09:23:59.650Z,11.90
2023-01-22T09:26:28.103Z,12.60
2023-01-22T09:28:58.112Z,11.37
2023-01-22T09:31:27.907Z,12.67
2023-01-22T09:33:56.457Z,12.43
2023-01-22T09:36:24.874Z,12.97
2023-01-22T09:38:53.406Z,12.47
2023-01-22T09:41:24.096Z,11.53
2023-01-22T09:43:54.030Z,11.97
2023-01-22T09:46:24.862Z,12.97
2023-01-22T09:48:56.011Z,13.13
2023-01-22T09:51:25.314Z,11.67
2023-01-22T09:53:56.365Z,12.57
2023-01-22T09:56:28.063Z,13.70
2023-01-22T09:58:57.316Z,12.60
2023-01-22T10:01:26.482Z,11.93
2023-01-22T10:03:59.079Z,12.00
2023-01-22T10:06:29.942Z,12.63
2023-01-22T10:09:02.439Z,12.27
2023-01-22T10:11:31.066Z,12.20
2023-01-22T10:14:00.738Z,12.97
2023-01-22T10:16:29.225Z,11.87
2023-01-22T10:19:01.946Z,12.53
2023-01-22T10:21:31.373Z,12.87
2023-01-22T10:24:00.233Z,13.43
2023-01-22T10:26:34.015Z,12.30
2023-01-22T10:29:06.051Z,12.77
2023-01-22T10:31:35.577Z,13.57
2023-01-22T10:34:06.657Z,12.60
2023-01-22T10:36:35.069Z,13.17
2023-01-22T10:39:12.278Z,12.53
2023-01-22T10:41:40.958Z,13.10
2023-01-22T10:44:10.218Z,12.87
2023-01-22T10:46:38.674Z,12.73
2023-01-22T10:49:08.515Z,13.27
2023-01-22T10:51:38.519Z,13.20
2023-01-22T10:54:15.962Z,12.97
2023-01-22T10:56:44.382Z,12.77
2023-01-22T10:59:18.890Z,13.13
2023-01-22T11:01:49.386Z,13.53
2023-01-22T11:04:23.526Z,13.10
2023-01-22T11:06:52.904Z,13.57
2023-01-22T11:09:24.772Z,11.60
2023-01-22T11:11:54.921Z,12.93
2023-01-22T11:14:25.317Z,13.07
2023-01-22T11:16:55.430Z,12.70
2023-01-22T11:19:36.567Z,12.63
2023-01-22T11:22:08.206Z,13.40
2023-01-22T11:24:38.697Z,12.73
2023-01-22T11:27:14.489Z,12.77
2023-01-22T11:29:57.765Z,12.77
2023-01-22T11:32:34.448Z,12.53
2023-01-22T11:35:07.997Z,12.17
2023-01-22T11:37:43.276Z,12.67
2023-01-22T11:40:26.526Z,13.60
2023-01-22T11:43:18.846Z,14.53
2023-01-22T11:45:54.489Z,13.30
2023-01-22T11:48:41.183Z,14.63
2023-01-22T11:51:14.511Z,13.73
2023-01-22T11:53:57.468Z,14.57
2023-01-22T11:56:32.648Z,15.00
2023-01-22T11:59:04.785Z,13.40
2023-01-22T12:01:41.358Z,15.57
2023-01-22T12:04:27.443Z,15.40
2023-01-22T12:07:04.140Z,15.70
2023-01-22T12:09:36.763Z,15.70
2023-01-22T12:13:45.252Z,14.63
2023-01-22T12:16:17.075Z,15.03
2023-01-22T12:18:59.722Z,15.70
2023-01-22T12:21:34.391Z,17.23
2023-01-22T12:24:06.485Z,15.70
2023-01-22T12:26:36.415Z,15.87
2023-01-22T12:29:09.639Z,16.00
2023-01-22T12:31:40.585Z,16.30
2023-01-22T12:34:12.880Z,15.50
2023-01-22T12:36:41.907Z,15.73
2023-01-22T12:39:17.580Z,15.53
2023-01-22T12:41:49.046Z,14.87
2023-01-22T12:44:24.330Z,16.03
2023-01-22T12:46:58.549Z,16.30
2023-01-22T12:49:28.041Z,15.93
2023-01-22T12:51:59.856Z,17.00
2023-01-22T12:54:33.982Z,15.90
2023-01-22T12:57:13.529Z,16.37
2023-01-22T12:59:48.814Z,16.97
2023-01-22T13:02:26.038Z,16.00
2023-01-22T13:04:54.980Z,29.40
2023-01-22T13:07:24.475Z,17.83
2023-01-22T13:10:02.701Z,16.13
2023-01-22T13:12:38.451Z,16.27
2023-01-22T13:15:17.331Z,15.93
2023-01-22T13:17:47.453Z,16.13
2023-01-22T13:20:19.610Z,15.83
2023-01-22T13:22:48.495Z,16.73
2023-01-22T13:25:24.940Z,16.73
2023-01-22T13:27:53.699Z,16.40
2023-01-22T13:30:27.043Z,16.53
2023-01-22T13:33:08.662Z,16.93
2023-01-22T13:35:38.174Z,17.07
2023-01-22T13:38:06.896Z,17.90
2023-01-22T13:40:50.543Z,17.37
2023-01-22T13:43:20.864Z,17.70
2023-01-22T13:45:51.532Z,17.57
2023-01-22T13:48:21.977Z,17.37
2023-01-22T13:50:55.925Z,16.93
2023-01-22T13:53:26.484Z,17.60
2023-01-22T13:55:55.698Z,17.00
2023-01-22T13:58:47.909Z,17.43
2023-01-22T14:01:30.423Z,17.53
2023-01-22T14:04:02.618Z,16.40
2023-01-22T14:06:31.394Z,16.93
2023-01-22T14:09:00.153Z,15.97
2023-01-22T14:11:38.990Z,16.80
2023-01-22T14:14:16.494Z,16.27
2023-01-22T14:16:46.832Z,16.67
2023-01-22T14:19:15.376Z,16.53
2023-01-22T14:21:43.931Z,17.00
2023-01-22T14:24:12.479Z,18.10
2023-01-22T14:26:40.918Z,15.90
2023-01-22T14:29:10.087Z,16.07
2023-01-22T14:31:38.528Z,15.97
2023-01-22T14:34:08.401Z,15.43
2023-01-22T14:36:36.820Z,15.63
2023-01-22T14:39:06.823Z,15.83
2023-01-22T14:41:35.384Z,15.37
2023-01-22T14:44:04.256Z,16.63
2023-01-22T14:46:32.786Z,15.73
2023-01-22T14:49:01.950Z,15.33
2023-01-22T14:51:31.799Z,15.80
2023-01-22T14:54:00.297Z,15.93
2023-01-22T14:56:28.771Z,16.97
2023-01-22T14:58:57.203Z,14.37
2023-01-22T15:01:25.716Z,15.60
2023-01-22T15:03:54.267Z,15.00
2023-01-22T15:06:22.735Z,15.53
2023-01-22T15:08:52.699Z,15.93
2023-01-22T15:11:21.107Z,14.07
2023-01-22T15:13:52.668Z,15.93
2023-01-22T15:16:21.571Z,15.13
2023-01-22T15:18:50.011Z,15.00
2023-01-22T15:21:18.412Z,16.10
2023-01-22T15:23:46.874Z,14.97
2023-01-22T15:26:25.098Z,14.77
2023-01-22T15:28:53.529Z,15.17
2023-01-22T15:31:25.031Z,15.50
2023-01-22T15:33:53.532Z,15.03
2023-01-22T15:36:21.985Z,15.27
2023-01-22T15:38:50.439Z,15.33
2023-01-22T15:41:20.428Z,16.57
2023-01-22T15:43:51.768Z,16.80
2023-01-22T15:46:20.944Z,16.20
2023-01-22T15:48:49.484Z,16.23
2023-01-22T15:51:18.157Z,16.57
2023-01-22T15:53:50.792Z,15.60
2023-01-22T15:56:19.230Z,16.23
2023-01-22T15:58:48.781Z,16.60
2023-01-22T16:01:18.744Z,17.33
2023-01-22T16:03:47.439Z,16.47
2023-01-22T16:06:16.905Z,16.93
2023-01-22T16:08:46.021Z,16.73
2023-01-22T16:11:14.807Z,17.47
2023-01-22T16:13:43.870Z,16.57
2023-01-22T16:16:16.203Z,17.10
2023-01-22T16:18:46.325Z,16.93
2023-01-22T16:21:15.091Z,17.50
2023-01-22T16:23:44.370Z,17.60
2023-01-22T16:26:14.702Z,17.73
2023-01-22T16:28:43.202Z,16.97
2023-01-22T16:31:12.521Z,17.20
2023-01-22T16:33:42.989Z,17.23
2023-01-22T16:36:14.073Z,16.17
2023-01-22T16:38:42.954Z,17.33
2023-01-22T16:41:24.748Z,16.67
2023-01-22T16:43:54.979Z,17.90
2023-01-22T16:46:24.749Z,17.77
2023-01-22T16:48:56.951Z,19.03
2023-01-22T16:51:27.811Z,18.30
2023-01-22T16:53:56.605Z,17.97
2023-01-22T16:56:25.068Z,17.93
2023-01-22T16:58:53.463Z,18.67
2023-01-22T17:01:22.775Z,18.10
2023-01-22T17:03:51.316Z,18.23
2023-01-22T17:06:24.337Z,18.80
2023-01-22T17:08:54.374Z,19.93
2023-01-22T17:11:23.058Z,20.17
2023-01-22T17:13:51.716Z,19.97
2023-01-22T17:16:20.718Z,18.73
2023-01-22T17:18:49.173Z,19.67
2023-01-22T17:21:19.198Z,18.70
2023-01-22T17:23:47.740Z,19.03
2023-01-22T17:26:18.064Z,19.80
2023-01-22T17:28:47.439Z,19.00
2023-01-22T17:31:17.081Z,18.93
2023-01-22T17:33:46.332Z,18.60
2023-01-22T17:36:16.013Z,18.57
2023-01-22T17:38:44.515Z,18.67
2023-01-22T17:41:14.946Z,19.57
2023-01-22T17:43:45.117Z,18.50
2023-01-22T17:46:14.410Z,19.03
2023-01-22T17:48:42.851Z,17.90
2023-01-22T17:51:12.686Z,18.63
2023-01-22T17:53:41.835Z,18.53
2023-01-22T17:56:11.383Z,18.57
2023-01-22T17:58:42.279Z,19.13
2023-01-22T18:01:12.742Z,17.53
2023-01-22T18:03:41.189Z,18.13
2023-01-22T18:06:09.751Z,19.07
2023-01-22T18:08:39.530Z,18.80
2023-01-22T18:11:08.735Z,18.70
2023-01-22T18:13:38.018Z,18.77
2023-01-22T18:16:06.920Z,19.27
2023-01-22T18:18:36.982Z,19.80
2023-01-22T18:21:05.820Z,20.00
2023-01-22T18:23:34.435Z,19.30
2023-01-22T18:26:05.364Z,19.90
2023-01-22T18:28:34.135Z,20.10
2023-01-22T18:31:05.796Z,18.30
2023-01-22T18:33:34.789Z,20.07
2023-01-22T18:36:05.608Z,19.87
2023-01-22T18:38:36.477Z,20.07
2023-01-22T18:41:08.250Z,20.63
2023-01-22T18:43:36.706Z,20.00
2023-01-22T18:46:05.790Z,18.30
2023-01-22T18:48:34.311Z,19.93
2023-01-22T18:51:04.159Z,20.43
2023-01-22T18:53:32.775Z,18.47
2023-01-22T18:56:01.661Z,20.37
2023-01-22T18:58:32.345Z,18.77
2023-01-22T19:01:01.621Z,18.93
2023-01-22T19:03:30.775Z,21.07
2023-01-22T19:05:59.665Z,19.50
2023-01-22T19:08:29.723Z,19.60
2023-01-22T19:11:03.927Z,20.60
2023-01-22T19:13:35.184Z,20.00
2023-01-22T19:16:04.707Z,20.70
2023-01-22T19:18:33.557Z,20.50
2023-01-22T19:21:13.337Z,19.77
2023-01-22T19:23:45.484Z,19.83
2023-01-22T19:26:15.143Z,20.43
2023-01-22T19:28:43.565Z,20.63
2023-01-22T19:31:18.740Z,22.17
2023-01-22T19:33:47.298Z,20.60
2023-01-22T19:36:15.814Z,21.50
2023-01-22T19:38:45.679Z,21.70
2023-01-22T19:41:14.119Z,21.13
2023-01-22T19:43:43.020Z,20.80
2023-01-22T19:46:13.648Z,21.70
2023-01-22T19:48:42.694Z,21.13
2023-01-22T19:51:11.966Z,21.03
2023-01-22T19:53:40.607Z,21.60
2023-01-22T19:56:16.995Z,21.87
2023-01-22T19:58:45.774Z,21.70
2023-01-22T20:01:14.712Z,21.87
2023-01-22T20:03:43.597Z,21.80
2023-01-22T20:06:13.254Z,21.67
2023-01-22T20:08:41.676Z,22.53
2023-01-22T20:11:11.193Z,21.17
2023-01-22T20:13:41.702Z,22.30
2023-01-22T20:16:17.738Z,20.90
2023-01-22T20:18:46.193Z,21.43
2023-01-22T20:21:15.528Z,21.97
2023-01-22T20:23:43.951Z,22.87
2023-01-22T20:26:12.723Z,21.33
2023-01-22T20:28:42.629Z,23.77
2023-01-22T20:31:13.625Z,22.73
2023-01-22T20:33:42.161Z,22.90
2023-01-22T20:36:12.049Z,22.80
2023-01-22T20:38:40.448Z,23.20
2023-01-22T20:41:09.860Z,23.57
2023-01-22T20:43:39.168Z,23.00
2023-01-22T20:46:10.173Z,24.20
2023-01-22T20:48:38.961Z,22.87
2023-01-22T20:51:14.418Z,21.77
2023-01-22T20:53:43.727Z,23.97
2023-01-22T20:56:13.947Z,23.60
2023-01-22T20:58:42.396Z,24.30
2023-01-22T21:01:14.564Z,22.83
2023-01-22T21:03:43.107Z,24.40
2023-01-22T21:06:14.007Z,23.73
2023-01-22T21:08:43.370Z,24.57
2023-01-22T21:11:12.754Z,24.40
2023-01-22T21:13:41.500Z,24.80
2023-01-22T21:16:10.912Z,25.03
2023-01-22T21:18:43.802Z,24.43
2023-01-22T21:21:12.689Z,25.50
2023-01-22T21:23:41.205Z,25.00
2023-01-22T21:26:15.571Z,25.07
2023-01-22T21:28:44.028Z,25.40
2023-01-22T21:31:14.036Z,26.37
2023-01-22T21:33:44.307Z,26.80
2023-01-22T21:36:13.651Z,28.07
2023-01-22T21:38:42.137Z,24.13
2023-01-22T21:41:12.285Z,26.03
2023-01-22T21:43:59.023Z,26.30
2023-01-22T21:46:29.476Z,26.27
2023-01-22T21:49:01.260Z,25.60
2023-01-22T21:51:30.237Z,26.50
2023-01-22T21:53:59.752Z,27.97
2023-01-22T21:56:28.222Z,26.43
2023-01-22T21:58:57.653Z,25.90
2023-01-22T22:01:26.118Z,25.23
2023-01-22T22:03:54.610Z,27.60
2023-01-22T22:06:24.416Z,26.33
2023-01-22T22:08:52.861Z,26.30
2023-01-22T22:11:21.561Z,26.30
2023-01-22T22:13:49.997Z,25.07
2023-01-22T22:16:18.536Z,26.43
2023-01-22T22:18:47.033Z,25.07
2023-01-22T22:21:15.555Z,25.17
2023-01-22T22:23:45.474Z,23.70
2023-01-22T22:26:13.897Z,24.88
2023-01-22T22:28:42.371Z,25.13
2023-01-22T22:31:11.864Z,25.43
2023-01-22T22:33:40.737Z,23.87
2023-01-22T22:36:09.917Z,24.87
2023-01-22T22:38:38.661Z,23.60
2023-01-22T22:41:09.380Z,22.73
2023-01-22T22:43:38.747Z,22.90
2023-01-22T22:46:08.985Z,22.20
2023-01-22T22:48:37.444Z,22.50
2023-01-22T22:51:11.014Z,22.30
2023-01-22T22:53:39.577Z,22.45
2023-01-22T22:56:10.385Z,22.80
2023-01-22T22:58:38.979Z,23.90
2023-01-22T23:01:08.062Z,21.73
2023-01-22T23:03:37.513Z,22.80
2023-01-22T23:06:08.319Z,22.23
2023-01-22T23:08:37.532Z,22.03
2023-01-22T23:11:06.501Z,20.93
2023-01-22T23:13:36.511Z,21.53
2023-01-22T23:16:05.370Z,20.80
2023-01-22T23:18:34.649Z,21.93
2023-01-22T23:21:04.846Z,22.02
2023-01-22T23:23:33.385Z,22.23
2023-01-22T23:26:01.872Z,22.42
2023-01-22T23:28:30.427Z,21.50
2023-01-22T23:31:05.315Z,22.10
2023-01-22T23:33:33.881Z,20.27
2023-01-22T23:36:02.433Z,20.87
2023-01-22T23:38:30.872Z,21.15
2023-01-22T23:40:59.520Z,21.10
2023-01-22T23:43:28.014Z,21.52
2023-01-22T23:45:56.441Z,21.37
2023-01-22T23:48:26.307Z,20.70
2023-01-22T23:50:55.055Z,22.80
2023-01-22T23:53:24.109Z,20.80
2023-01-22T23:55:52.514Z,21.43
2023-01-22T23:58:21.199Z,21.07
